createdAt,value
2022-10-10T00:01:37.413Z,4.88
2022-10-10T00:04:06.828Z,4.86
2022-10-10T00:06:34.661Z,4.83
2022-10-10T00:09:06.111Z,4.82
2022-10-10T00:11:35.511Z,4.81
2022-10-10T00:14:04.936Z,4.80
2022-10-10T00:16:33.964Z,4.78
2022-10-10T00:19:01.853Z,4.78
2022-10-10T00:21:31.562Z,4.77
2022-10-10T00:24:01.693Z,4.75
2022-10-10T00:26:30.784Z,4.74
2022-10-10T00:28:58.537Z,4.72
2022-10-10T00:31:27.958Z,4.70
2022-10-10T00:33:58.153Z,4.68
2022-10-10T00:36:25.909Z,4.68
2022-10-10T00:38:53.660Z,4.66
2022-10-10T00:41:22.816Z,4.67
2022-10-10T00:44:12.256Z,4.64
2022-10-10T00:46:41.803Z,4.61
2022-10-10T00:49:24.253Z,4.59
2022-10-10T00:51:57.008Z,4.60
2022-10-10T00:54:29.010Z,4.59
2022-10-10T00:57:09.551Z,4.56
2022-10-10T00:59:42.349Z,4.53
2022-10-10T01:02:10.026Z,4.51
2022-10-10T01:04:45.385Z,4.51
2022-10-10T01:07:24.561Z,4.54
2022-10-10T01:09:56.482Z,4.57
2022-10-10T01:12:42.807Z,4.59
2022-10-10T01:15:16.770Z,4.61
2022-10-10T01:17:48.716Z,4.64
2022-10-10T01:20:39.447Z,4.62
2022-10-10T01:23:38.468Z,4.56
2022-10-10T01:26:24.927Z,4.49
2022-10-10T01:29:23.632Z,4.41
2022-10-10T01:31:56.739Z,4.28
2022-10-10T01:34:44.739Z,4.19
2022-10-10T01:37:25.591Z,4.15
2022-10-10T01:40:30.526Z,4.12
2022-10-10T01:43:09.246Z,4.10
2022-10-10T01:45:37.470Z,4.11
2022-10-10T01:48:07.533Z,4.11
2022-10-10T01:51:00.755Z,4.10
2022-10-10T01:53:40.298Z,4.12
2022-10-10T01:56:07.873Z,4.13
2022-10-10T01:58:57.617Z,4.13
2022-10-10T02:01:36.207Z,4.11
2022-10-10T02:04:12.948Z,4.11
2022-10-10T02:06:56.771Z,4.12
2022-10-10T02:09:33.485Z,4.16
2022-10-10T02:12:04.627Z,4.22
2022-10-10T02:14:57.283Z,4.24
2022-10-10T02:17:27.472Z,4.25
2022-10-10T02:19:59.411Z,4.27
2022-10-10T02:22:29.267Z,4.27
2022-10-10T02:24:57.165Z,4.26
2022-10-10T02:27:47.143Z,4.26
2022-10-10T02:30:19.266Z,4.25
2022-10-10T02:32:48.180Z,4.26
2022-10-10T02:35:25.583Z,4.24
2022-10-10T02:37:55.596Z,4.18
2022-10-10T02:40:31.096Z,4.08
2022-10-10T02:43:04.443Z,4.04
2022-10-10T02:45:34.378Z,4.01
2022-10-10T02:48:03.590Z,3.99
2022-10-10T02:50:33.195Z,3.96
2022-10-10T02:53:00.862Z,3.92
2022-10-10T02:55:28.557Z,3.89
2022-10-10T02:57:56.237Z,3.86
2022-10-10T03:00:23.899Z,3.82
2022-10-10T03:02:51.786Z,3.80
2022-10-10T03:05:21.919Z,3.81
2022-10-10T03:07:51.068Z,3.81
2022-10-10T03:10:18.811Z,3.80
2022-10-10T03:12:46.444Z,3.81
2022-10-10T03:15:14.112Z,3.82
2022-10-10T03:17:42.902Z,3.81
2022-10-10T03:20:11.595Z,3.76
2022-10-10T03:22:39.411Z,3.73
2022-10-10T03:25:07.493Z,3.70
2022-10-10T03:27:35.148Z,3.68
2022-10-10T03:30:06.895Z,3.64
2022-10-10T03:32:34.589Z,3.60
2022-10-10T03:35:02.290Z,3.55
2022-10-10T03:37:29.932Z,3.51
2022-10-10T03:39:57.585Z,3.45
2022-10-10T03:42:26.654Z,3.40
2022-10-10T03:44:54.345Z,3.37
2022-10-10T03:47:21.988Z,3.35
2022-10-10T03:49:51.108Z,3.32
2022-10-10T03:52:18.740Z,3.28
2022-10-10T03:54:46.877Z,3.25
2022-10-10T03:57:16.480Z,3.23
2022-10-10T03:59:44.177Z,3.20
2022-10-10T04:02:11.907Z,3.20
2022-10-10T04:04:39.591Z,3.18
2022-10-10T04:07:07.328Z,3.15
2022-10-10T04:09:35.012Z,3.12
2022-10-10T04:12:06.269Z,3.10
2022-10-10T04:14:33.956Z,3.06
2022-10-10T04:17:03.306Z,3.04
2022-10-10T04:19:32.224Z,2.99
2022-10-10T04:22:00.996Z,2.96
2022-10-10T04:24:28.795Z,2.94
2022-10-10T04:26:56.474Z,2.92
2022-10-10T04:29:24.668Z,2.89
2022-10-10T04:31:55.188Z,2.86
2022-10-10T04:34:22.910Z,2.83
2022-10-10T04:36:50.809Z,2.81
2022-10-10T04:39:20.095Z,2.78
2022-10-10T04:41:50.676Z,2.76
2022-10-10T04:44:18.951Z,2.74
2022-10-10T04:46:46.649Z,2.71
2022-10-10T04:49:14.314Z,2.67
2022-10-10T04:51:41.984Z,2.64
2022-10-10T04:54:11.001Z,2.62
2022-10-10T04:56:40.282Z,2.60
2022-10-10T04:59:10.196Z,2.58
2022-10-10T05:01:37.951Z,2.56
2022-10-10T05:04:06.963Z,2.55
2022-10-10T05:06:34.619Z,2.55
2022-10-10T05:09:02.384Z,2.54
2022-10-10T05:11:30.074Z,2.53
2022-10-10T05:13:59.121Z,2.53
2022-10-10T05:16:26.881Z,2.51
2022-10-10T05:18:54.762Z,2.49
2022-10-10T05:21:22.613Z,2.50
2022-10-10T05:23:50.323Z,2.50
2022-10-10T05:26:21.147Z,2.52
2022-10-10T05:28:49.225Z,2.55
2022-10-10T05:31:17.047Z,2.57
2022-10-10T05:33:44.700Z,2.60
2022-10-10T05:36:14.056Z,2.64
2022-10-10T05:38:42.974Z,2.66
2022-10-10T05:41:10.700Z,2.67
2022-10-10T05:43:38.769Z,2.70
2022-10-10T05:46:06.521Z,2.70
2022-10-10T05:48:34.313Z,2.71
2022-10-10T05:51:02.017Z,2.73
2022-10-10T05:53:31.266Z,2.74
2022-10-10T05:56:02.180Z,2.76
2022-10-10T05:58:31.778Z,2.77
2022-10-10T06:01:05.779Z,2.80
2022-10-10T06:03:35.701Z,2.83
2022-10-10T06:06:04.734Z,2.88
2022-10-10T06:08:32.522Z,2.93
2022-10-10T06:11:08.458Z,2.96
2022-10-10T06:13:38.757Z,3.02
2022-10-10T06:16:07.983Z,3.07
2022-10-10T06:18:37.075Z,3.13
2022-10-10T06:21:08.674Z,3.19
2022-10-10T06:23:37.510Z,3.26
2022-10-10T06:26:05.312Z,3.35
2022-10-10T06:28:35.890Z,3.43
2022-10-10T06:31:08.487Z,3.50
2022-10-10T06:33:37.817Z,3.59
2022-10-10T06:36:07.822Z,3.67
2022-10-10T06:38:41.116Z,3.75
2022-10-10T06:41:10.483Z,3.84
2022-10-10T06:43:39.459Z,3.94
2022-10-10T06:46:08.036Z,4.01
2022-10-10T06:48:36.690Z,4.10
2022-10-10T06:51:09.374Z,4.19
2022-10-10T06:53:37.091Z,4.28
2022-10-10T06:56:07.151Z,4.38
2022-10-10T06:58:35.455Z,4.47
2022-10-10T07:01:05.897Z,4.58
2022-10-10T07:03:33.561Z,4.69
2022-10-10T07:06:03.571Z,4.78
2022-10-10T07:08:32.606Z,4.89
2022-10-10T07:11:00.312Z,4.98
2022-10-10T07:13:29.131Z,5.08
2022-10-10T07:15:57.101Z,5.16
2022-10-10T07:18:25.236Z,5.24
2022-10-10T07:20:57.577Z,5.33
2022-10-10T07:23:28.403Z,5.43
2022-10-10T07:26:04.201Z,5.52
2022-10-10T07:28:32.922Z,5.61
2022-10-10T07:31:08.091Z,5.71
2022-10-10T07:33:40.030Z,5.81
2022-10-10T07:36:09.047Z,5.92
2022-10-10T07:38:38.538Z,6.04
2022-10-10T07:41:10.195Z,6.15
2022-10-10T07:43:38.951Z,6.28
2022-10-10T07:46:12.957Z,6.38
2022-10-10T07:48:40.792Z,6.48
2022-10-10T07:51:10.073Z,6.59
2022-10-10T07:53:39.236Z,6.70
2022-10-10T07:56:10.479Z,6.81
2022-10-10T07:58:39.646Z,6.92
2022-10-10T08:01:11.788Z,7.03
2022-10-10T08:03:40.544Z,7.21
2022-10-10T08:06:13.021Z,7.38
2022-10-10T08:08:50.306Z,7.53
2022-10-10T08:11:21.389Z,7.70
2022-10-10T08:13:51.150Z,7.82
2022-10-10T08:16:20.465Z,7.94
2022-10-10T08:18:49.721Z,8.07
2022-10-10T08:21:18.342Z,8.21
2022-10-10T08:23:47.382Z,8.33
2022-10-10T08:26:18.497Z,8.49
2022-10-10T08:28:49.445Z,8.69
2022-10-10T08:31:21.412Z,9.03
2022-10-10T08:33:51.427Z,9.46
2022-10-10T08:36:24.522Z,9.98
2022-10-10T08:39:02.631Z,10.58
2022-10-10T08:41:47.459Z,11.18
2022-10-10T08:44:43.197Z,11.87
2022-10-10T08:47:18.597Z,12.51
2022-10-10T08:49:52.493Z,13.04
2022-10-10T08:52:30.979Z,13.49
2022-10-10T08:55:03.695Z,13.89
2022-10-10T08:58:02.335Z,14.32
2022-10-10T09:00:36.762Z,14.79
2022-10-10T09:03:32.966Z,15.13
2022-10-10T09:06:39.016Z,15.52
2022-10-10T09:09:48.830Z,15.91
2022-10-10T09:12:39.890Z,16.18
2022-10-10T09:15:29.454Z,16.56
2022-10-10T09:18:09.923Z,16.94
2022-10-10T09:21:23.075Z,17.41
2022-10-10T09:24:04.649Z,17.95
2022-10-10T09:26:40.485Z,18.50
2022-10-10T09:29:33.273Z,18.99
2022-10-10T09:32:09.580Z,19.12
2022-10-10T09:34:49.455Z,18.91
2022-10-10T09:37:46.876Z,18.79
2022-10-10T09:40:34.614Z,18.64
2022-10-10T09:43:18.682Z,18.42
2022-10-10T09:45:53.630Z,18.19
2022-10-10T09:48:28.869Z,18.02
2022-10-10T09:50:57.936Z,18.00
2022-10-10T09:53:27.785Z,18.05
2022-10-10T09:55:55.751Z,18.02
2022-10-10T09:58:44.861Z,17.89
2022-10-10T10:01:18.910Z,17.76
2022-10-10T10:04:17.194Z,17.77
2022-10-10T10:07:18.577Z,17.78
2022-10-10T10:09:53.048Z,17.69
2022-10-10T10:12:27.004Z,17.65
2022-10-10T10:15:03.538Z,17.60
2022-10-10T10:17:31.662Z,17.61
2022-10-10T10:19:59.446Z,17.58
2022-10-10T10:22:33.127Z,17.53
2022-10-10T10:25:32.766Z,17.56
2022-10-10T10:28:21.779Z,17.73
2022-10-10T10:30:55.068Z,17.92
2022-10-10T10:33:38.439Z,18.09
2022-10-10T10:36:41.642Z,18.25
2022-10-10T10:39:38.945Z,18.20
2022-10-10T10:42:21.970Z,18.14
2022-10-10T10:45:13.562Z,18.23
2022-10-10T10:47:58.743Z,18.33
2022-10-10T10:50:38.419Z,18.47
2022-10-10T10:53:34.549Z,18.57
2022-10-10T10:56:13.529Z,18.68
2022-10-10T11:02:11.588Z,18.83
2022-10-10T11:05:36.581Z,18.89
2022-10-10T11:08:21.156Z,18.81
2022-10-10T11:11:18.386Z,18.86
2022-10-10T11:14:02.088Z,18.95
2022-10-10T11:16:51.986Z,19.01
2022-10-10T11:19:25.791Z,19.11
2022-10-10T11:22:07.482Z,19.16
2022-10-10T11:25:00.778Z,19.09
2022-10-10T11:27:43.195Z,19.07
2022-10-10T11:30:26.655Z,19.09
2022-10-10T11:33:21.068Z,19.11
2022-10-10T11:35:58.818Z,19.22
2022-10-10T11:39:03.419Z,19.31
2022-10-10T11:41:44.405Z,19.43
2022-10-10T11:44:18.188Z,19.50
2022-10-10T11:46:56.251Z,19.56
2022-10-10T11:49:44.763Z,19.57
2022-10-10T11:52:32.914Z,19.54
2022-10-10T11:55:27.463Z,19.54
2022-10-10T11:58:28.318Z,19.56
2022-10-10T12:01:13.505Z,19.61
2022-10-10T12:03:41.192Z,19.72
2022-10-10T12:06:35.246Z,19.77
2022-10-10T12:09:08.629Z,19.82
2022-10-10T12:11:59.942Z,19.83
2022-10-10T12:14:31.594Z,19.83
2022-10-10T12:17:01.179Z,19.84
2022-10-10T12:19:29.619Z,19.88
2022-10-10T12:22:30.822Z,19.92
2022-10-10T12:25:10.519Z,19.90
2022-10-10T12:28:05.789Z,19.86
2022-10-10T12:30:33.614Z,19.90
2022-10-10T12:33:01.323Z,19.91
2022-10-10T12:35:36.797Z,19.93
2022-10-10T12:38:13.558Z,19.92
2022-10-10T12:41:07.110Z,19.92
2022-10-10T12:43:40.359Z,19.91
2022-10-10T12:46:16.033Z,19.96
2022-10-10T12:48:45.774Z,19.95
2022-10-10T12:51:23.362Z,19.93
2022-10-10T12:53:58.205Z,19.92
2022-10-10T12:56:44.731Z,19.82
2022-10-10T12:59:21.353Z,19.66
2022-10-10T13:02:02.728Z,19.49
2022-10-10T13:04:32.049Z,19.43
2022-10-10T13:07:04.482Z,19.46
2022-10-10T13:09:35.940Z,19.49
2022-10-10T13:12:07.091Z,19.55
2022-10-10T13:14:41.420Z,19.61
2022-10-10T13:17:33.512Z,19.64
2022-10-10T13:20:02.754Z,19.68
2022-10-10T13:22:34.009Z,19.72
2022-10-10T13:25:05.436Z,19.73
2022-10-10T13:27:35.458Z,19.75
2022-10-10T13:30:08.180Z,19.74
2022-10-10T13:32:37.545Z,19.73
2022-10-10T13:35:15.086Z,19.68
2022-10-10T13:37:46.200Z,19.51
2022-10-10T13:40:16.650Z,19.31
2022-10-10T13:42:48.554Z,19.22
2022-10-10T13:45:29.266Z,19.18
2022-10-10T13:48:02.191Z,19.13
2022-10-10T13:50:44.383Z,19.05
2022-10-10T13:53:27.474Z,19.03
2022-10-10T13:56:11.827Z,18.96
2022-10-10T13:58:56.216Z,18.76
2022-10-10T14:01:35.833Z,18.62
2022-10-10T14:04:15.611Z,18.55
2022-10-10T14:06:55.365Z,18.58
2022-10-10T14:09:34.203Z,18.62
2022-10-10T14:12:04.938Z,18.63
2022-10-10T14:14:43.119Z,18.68
2022-10-10T14:17:12.144Z,18.72
2022-10-10T14:19:39.900Z,18.72
2022-10-10T14:22:08.862Z,18.73
2022-10-10T14:24:36.664Z,18.76
2022-10-10T14:27:19.780Z,18.75
2022-10-10T14:29:48.068Z,18.64
2022-10-10T14:32:17.585Z,18.54
2022-10-10T14:34:46.648Z,18.42
2022-10-10T14:37:24.971Z,18.27
2022-10-10T14:39:54.323Z,18.06
2022-10-10T14:42:23.812Z,17.88
2022-10-10T14:44:52.238Z,17.77
2022-10-10T14:47:24.629Z,17.66
2022-10-10T14:49:58.120Z,17.52
2022-10-10T14:52:25.792Z,17.41
2022-10-10T14:54:53.449Z,17.33
2022-10-10T14:57:23.449Z,17.27
2022-10-10T14:59:51.228Z,17.16
2022-10-10T15:02:22.774Z,17.04
2022-10-10T15:04:52.457Z,16.94
2022-10-10T15:07:20.323Z,16.79
2022-10-10T15:10:31.728Z,16.65
2022-10-10T15:12:42.850Z,16.51
2022-10-10T15:15:13.553Z,16.40
2022-10-10T15:17:42.651Z,16.32
2022-10-10T15:20:13.187Z,16.29
2022-10-10T15:22:42.330Z,16.24
2022-10-10T15:25:11.447Z,16.18
2022-10-10T15:27:39.265Z,16.09
2022-10-10T15:30:08.549Z,16.01
2022-10-10T15:32:41.313Z,15.92
2022-10-10T15:35:19.627Z,15.81
2022-10-10T15:37:48.885Z,15.69
2022-10-10T15:40:21.107Z,15.60
2022-10-10T15:42:50.970Z,15.50
2022-10-10T15:45:43.543Z,15.40
2022-10-10T15:48:07.901Z,15.30
2022-10-10T15:50:42.753Z,15.23
2022-10-10T15:53:14.447Z,15.16
2022-10-10T15:55:47.167Z,15.09
2022-10-10T15:58:17.377Z,15.02
2022-10-10T16:00:47.046Z,14.92
2022-10-10T16:03:19.537Z,14.84
2022-10-10T16:05:47.211Z,14.75
2022-10-10T16:08:18.887Z,14.67
2022-10-10T16:10:46.554Z,14.60
2022-10-10T16:13:17.035Z,14.51
2022-10-10T16:15:44.766Z,14.43
2022-10-10T16:18:12.405Z,14.37
2022-10-10T16:20:40.052Z,14.31
2022-10-10T16:23:10.226Z,14.25
2022-10-10T16:25:37.853Z,14.19
2022-10-10T16:28:05.631Z,14.13
2022-10-10T16:30:34.639Z,14.06
2022-10-10T16:33:02.355Z,13.98
2022-10-10T16:35:30.133Z,13.92
2022-10-10T16:38:01.075Z,13.83
2022-10-10T16:40:30.052Z,13.74
2022-10-10T16:42:57.734Z,13.67
2022-10-10T16:45:26.490Z,13.61
2022-10-10T16:47:54.338Z,13.49
2022-10-10T16:50:22.076Z,13.41
2022-10-10T16:52:49.853Z,13.36
2022-10-10T16:55:17.603Z,13.31
2022-10-10T16:57:45.275Z,13.26
2022-10-10T17:00:13.178Z,13.20
2022-10-10T17:02:43.014Z,13.12
2022-10-10T17:05:10.763Z,13.04
2022-10-10T17:07:39.759Z,12.98
2022-10-10T17:10:08.065Z,12.92
2022-10-10T17:12:35.726Z,12.86
2022-10-10T17:15:04.985Z,12.80
2022-10-10T17:17:35.943Z,12.72
2022-10-10T17:20:07.218Z,12.63
2022-10-10T17:22:36.383Z,12.53
2022-10-10T17:25:04.586Z,12.45
2022-10-10T17:27:35.180Z,12.40
2022-10-10T17:30:06.090Z,12.36
2022-10-10T17:32:33.744Z,12.34
2022-10-10T17:35:02.522Z,12.31
2022-10-10T17:37:30.259Z,12.27
2022-10-10T17:39:57.922Z,12.23
2022-10-10T17:42:26.665Z,12.19
2022-10-10T17:44:57.817Z,12.12
2022-10-10T17:47:28.408Z,12.06
2022-10-10T17:49:56.070Z,12.01
2022-10-10T17:52:24.978Z,11.99
2022-10-10T17:54:54.821Z,11.97
2022-10-10T17:57:22.990Z,11.94
2022-10-10T17:59:51.237Z,11.90
2022-10-10T18:02:19.703Z,11.83
2022-10-10T18:04:47.382Z,11.77
2022-10-10T18:07:19.292Z,11.72
2022-10-10T18:09:51.741Z,11.68
2022-10-10T18:12:20.207Z,11.62
2022-10-10T18:14:47.921Z,11.57
2022-10-10T18:17:15.652Z,11.51
2022-10-10T18:19:43.455Z,11.44
2022-10-10T18:22:11.152Z,11.39
2022-10-10T18:24:38.978Z,11.34
2022-10-10T18:27:06.696Z,11.30
2022-10-10T18:29:34.660Z,11.27
2022-10-10T18:32:02.442Z,11.24
2022-10-10T18:34:30.506Z,11.20
2022-10-10T18:36:58.204Z,11.16
2022-10-10T18:39:32.189Z,11.13
2022-10-10T18:42:00.964Z,11.05
2022-10-10T18:44:29.147Z,10.97
2022-10-10T18:46:56.802Z,10.90
2022-10-10T18:49:26.004Z,10.84
2022-10-10T18:51:53.986Z,10.78
2022-10-10T18:54:21.657Z,10.73
2022-10-10T18:56:51.205Z,10.68
2022-10-10T18:59:24.459Z,10.61
2022-10-10T19:01:53.876Z,10.55
2022-10-10T19:04:22.839Z,10.52
2022-10-10T19:06:56.813Z,10.47
2022-10-10T19:09:26.914Z,10.41
2022-10-10T19:11:56.101Z,10.35
2022-10-10T19:14:23.831Z,10.31
2022-10-10T19:16:51.876Z,10.24
2022-10-10T19:19:21.029Z,10.18
2022-10-10T19:21:51.534Z,10.12
2022-10-10T19:24:23.074Z,10.09
2022-10-10T19:26:56.810Z,10.04
2022-10-10T19:29:26.502Z,9.96
2022-10-10T19:31:56.912Z,9.87
2022-10-10T19:34:24.746Z,9.78
2022-10-10T19:36:55.080Z,9.73
2022-10-10T19:39:22.864Z,9.71
2022-10-10T19:41:50.700Z,9.68
2022-10-10T19:44:18.356Z,9.66
2022-10-10T19:46:46.049Z,9.64
2022-10-10T19:49:13.712Z,9.60
2022-10-10T19:51:41.488Z,9.55
2022-10-10T19:54:09.345Z,9.50
2022-10-10T19:56:37.050Z,9.44
2022-10-10T19:59:06.590Z,9.36
2022-10-10T20:01:34.605Z,9.26
2022-10-10T20:04:02.380Z,9.19
2022-10-10T20:06:31.362Z,9.14
2022-10-10T20:09:00.224Z,9.09
2022-10-10T20:11:28.058Z,9.04
2022-10-10T20:13:59.116Z,8.98
2022-10-10T20:16:27.520Z,8.95
2022-10-10T20:18:58.737Z,8.94
2022-10-10T20:21:32.584Z,8.94
2022-10-10T20:24:06.145Z,8.95
2022-10-10T20:26:35.763Z,8.98
2022-10-10T20:29:04.932Z,9.01
2022-10-10T20:31:36.662Z,9.01
2022-10-10T20:34:06.506Z,9.02
2022-10-10T20:36:36.119Z,9.02
2022-10-10T20:39:08.645Z,9.01
2022-10-10T20:41:39.402Z,8.99
2022-10-10T20:44:10.223Z,8.97
2022-10-10T20:46:40.685Z,8.97
2022-10-10T20:49:18.272Z,8.96
2022-10-10T20:51:52.831Z,8.94
2022-10-10T20:54:24.066Z,8.93
2022-10-10T20:56:53.113Z,8.93
2022-10-10T20:59:24.457Z,8.92
2022-10-10T21:01:52.158Z,8.89
2022-10-10T21:04:20.672Z,8.87
2022-10-10T21:06:48.433Z,8.85
2022-10-10T21:09:16.117Z,8.82
2022-10-10T21:11:48.687Z,8.79
2022-10-10T21:14:19.900Z,8.76
2022-10-10T21:16:51.344Z,8.72
2022-10-10T21:19:19.079Z,8.68
2022-10-10T21:21:46.854Z,8.62
2022-10-10T21:24:16.076Z,8.58
2022-10-10T21:26:46.485Z,8.53
2022-10-10T21:29:14.143Z,8.49
2022-10-10T21:31:44.081Z,8.45
2022-10-10T21:34:16.561Z,8.42
2022-10-10T21:36:46.289Z,8.41
2022-10-10T21:39:15.931Z,8.38
2022-10-10T21:41:43.620Z,8.33
2022-10-10T21:44:12.423Z,8.29
2022-10-10T21:46:40.087Z,8.23
2022-10-10T21:49:12.208Z,8.16
2022-10-10T21:51:45.491Z,8.09
2022-10-10T21:54:15.004Z,8.03
2022-10-10T21:56:42.676Z,7.98
2022-10-10T21:59:11.874Z,7.94
2022-10-10T22:01:39.661Z,7.91
2022-10-10T22:04:10.696Z,7.89
2022-10-10T22:06:39.100Z,7.88
2022-10-10T22:09:06.935Z,7.87
2022-10-10T22:11:35.860Z,7.83
2022-10-10T22:14:05.152Z,7.82
2022-10-10T22:16:34.565Z,7.79
2022-10-10T22:19:05.459Z,7.76
2022-10-10T22:21:35.145Z,7.72
2022-10-10T22:24:07.988Z,7.67
2022-10-10T22:26:36.961Z,7.62
2022-10-10T22:29:06.015Z,7.57
2022-10-10T22:31:38.148Z,7.54
2022-10-10T22:34:07.677Z,7.51
2022-10-10T22:36:36.816Z,7.48
2022-10-10T22:39:08.247Z,7.47
2022-10-10T22:41:35.898Z,7.47
2022-10-10T22:44:05.090Z,7.46
2022-10-10T22:46:34.177Z,7.45
2022-10-10T22:49:03.389Z,7.44
2022-10-10T22:51:31.114Z,7.44
2022-10-10T22:53:58.832Z,7.43
2022-10-10T22:56:26.744Z,7.42
2022-10-10T22:58:55.119Z,7.39
2022-10-10T23:01:25.939Z,7.38
2022-10-10T23:04:00.347Z,7.39
2022-10-10T23:06:32.747Z,7.40
2022-10-10T23:09:00.592Z,7.42
2022-10-10T23:11:29.432Z,7.47
2022-10-10T23:13:58.640Z,7.53
2022-10-10T23:16:26.616Z,7.59
2022-10-10T23:18:54.234Z,7.66
2022-10-10T23:21:23.422Z,7.74
2022-10-10T23:23:52.393Z,7.82
2022-10-10T23:26:20.193Z,7.89
2022-10-10T23:28:50.834Z,7.97
2022-10-10T23:31:18.514Z,8.03
2022-10-10T23:33:46.194Z,8.06
2022-10-10T23:36:15.309Z,8.09
2022-10-10T23:38:45.629Z,8.15
2022-10-10T23:41:14.154Z,8.21
2022-10-10T23:43:41.888Z,8.26
2022-10-10T23:46:11.039Z,8.33
2022-10-10T23:48:38.914Z,8.42
2022-10-10T23:51:06.738Z,8.50
2022-10-10T23:53:35.903Z,8.58
2022-10-10T23:56:05.554Z,8.65
2022-10-10T23:58:35.630Z,8.73
